sensor_id;sensor_type;location;lat;lon;timestamp;temperature;humidity
19972;DHT22;10147;16.402;102.848;2023-05-10T00:00:19;25.70;99.90
19972;DHT22;10147;16.402;102.848;2023-05-10T00:02:49;25.80;99.90
19972;DHT22;10147;16.402;102.848;2023-05-10T00:05:20;25.80;99.90
19972;DHT22;10147;16.402;102.848;2023-05-10T00:07:50;25.80;99.90
19972;DHT22;10147;16.402;102.848;2023-05-10T00:10:19;25.90;99.90
19972;DHT22;10147;16.402;102.848;2023-05-10T00:12:49;25.90;99.90
19972;DHT22;10147;16.402;102.848;2023-05-10T00:15:19;26.10;99.90
19972;DHT22;10147;16.402;102.848;2023-05-10T00:17:49;26.10;99.90
19972;DHT22;10147;16.402;102.848;2023-05-10T00:20:19;26.20;99.90
19972;DHT22;10147;16.402;102.848;2023-05-10T00:22:49;26.20;99.90
19972;DHT22;10147;16.402;102.848;2023-05-10T00:25:19;26.30;99.90
19972;DHT22;10147;16.402;102.848;2023-05-10T00:27:50;26.30;99.90
19972;DHT22;10147;16.402;102.848;2023-05-10T00:30:20;26.40;99.90
19972;DHT22;10147;16.402;102.848;2023-05-10T00:32:50;26.40;99.90
19972;DHT22;10147;16.402;102.848;2023-05-10T00:35:21;26.50;99.90
19972;DHT22;10147;16.402;102.848;2023-05-10T00:37:50;26.50;99.90
19972;DHT22;10147;16.402;102.848;2023-05-10T00:40:20;26.50;99.90
19972;DHT22;10147;16.402;102.848;2023-05-10T00:42:54;26.50;99.90
19972;DHT22;10147;16.402;102.848;2023-05-10T00:45:25;26.60;99.90
19972;DHT22;10147;16.402;102.848;2023-05-10T00:47:57;26.70;99.90
19972;DHT22;10147;16.402;102.848;2023-05-10T00:50:27;26.80;99.90
19972;DHT22;10147;16.402;102.848;2023-05-10T00:52:58;26.70;99.90
19972;DHT22;10147;16.402;102.848;2023-05-10T00:55:30;26.80;99.90
19972;DHT22;10147;16.402;102.848;2023-05-10T00:58:00;26.90;99.90
19972;DHT22;10147;16.402;102.848;2023-05-10T01:00:32;26.90;99.90
19972;DHT22;10147;16.402;102.848;2023-05-10T01:03:03;26.90;99.90
19972;DHT22;10147;16.402;102.848;2023-05-10T01:05:33;27.00;99.90
19972;DHT22;10147;16.402;102.848;2023-05-10T01:08:03;27.10;99.90
19972;DHT22;10147;16.402;102.848;2023-05-10T01:10:33;27.20;99.90
19972;DHT22;10147;16.402;102.848;2023-05-10T01:13:04;27.30;99.90
19972;DHT22;10147;16.402;102.848;2023-05-10T01:15:34;27.30;99.90
19972;DHT22;10147;16.402;102.848;2023-05-10T01:18:04;27.30;99.90
19972;DHT22;10147;16.402;102.848;2023-05-10T01:20:39;27.30;99.90
19972;DHT22;10147;16.402;102.848;2023-05-10T01:23:44;27.30;99.90
19972;DHT22;10147;16.402;102.848;2023-05-10T01:26:34;27.40;99.90
19972;DHT22;10147;16.402;102.848;2023-05-10T01:36:06;27.60;99.90
19972;DHT22;10147;16.402;102.848;2023-05-10T01:41:57;27.80;99.90
19972;DHT22;10147;16.402;102.848;2023-05-10T01:45:13;27.80;99.90
19972;DHT22;10147;16.402;102.848;2023-05-10T01:50:33;27.90;99.90
19972;DHT22;10147;16.402;102.848;2023-05-10T01:53:07;28.10;99.90
19972;DHT22;10147;16.402;102.848;2023-05-10T01:55:47;28.10;99.90
19972;DHT22;10147;16.402;102.848;2023-05-10T01:58:34;28.20;99.90
19972;DHT22;10147;16.402;102.848;2023-05-10T02:01:06;28.30;99.90
19972;DHT22;10147;16.402;102.848;2023-05-10T02:03:38;28.50;99.90
19972;DHT22;10147;16.402;102.848;2023-05-10T02:06:10;28.40;99.90
19972;DHT22;10147;16.402;102.848;2023-05-10T02:08:43;28.50;99.90
19972;DHT22;10147;16.402;102.848;2023-05-10T02:11:17;28.50;99.90
19972;DHT22;10147;16.402;102.848;2023-05-10T02:13:50;28.50;99.90
19972;DHT22;10147;16.402;102.848;2023-05-10T02:16:26;28.60;99.90
19972;DHT22;10147;16.402;102.848;2023-05-10T02:18:58;28.70;99.90
19972;DHT22;10147;16.402;102.848;2023-05-10T02:21:29;28.70;99.90
19972;DHT22;10147;16.402;102.848;2023-05-10T02:24:02;28.70;99.90
19972;DHT22;10147;16.402;102.848;2023-05-10T02:26:34;28.90;99.90
19972;DHT22;10147;16.402;102.848;2023-05-10T02:29:06;29.00;99.90
19972;DHT22;10147;16.402;102.848;2023-05-10T02:31:37;29.00;99.90
19972;DHT22;10147;16.402;102.848;2023-05-10T02:34:08;29.10;99.90
19972;DHT22;10147;16.402;102.848;2023-05-10T02:36:41;29.20;99.90
19972;DHT22;10147;16.402;102.848;2023-05-10T02:39:12;29.40;99.90
19972;DHT22;10147;16.402;102.848;2023-05-10T02:41:45;29.50;99.90
19972;DHT22;10147;16.402;102.848;2023-05-10T02:44:19;29.60;99.90
19972;DHT22;10147;16.402;102.848;2023-05-10T02:46:49;29.60;99.90
19972;DHT22;10147;16.402;102.848;2023-05-10T02:49:19;29.90;99.90
19972;DHT22;10147;16.402;102.848;2023-05-10T02:51:58;29.90;99.90
19972;DHT22;10147;16.402;102.848;2023-05-10T02:54:34;30.00;99.90
19972;DHT22;10147;16.402;102.848;2023-05-10T02:57:07;30.00;99.90
19972;DHT22;10147;16.402;102.848;2023-05-10T02:59:38;30.00;99.90
19972;DHT22;10147;16.402;102.848;2023-05-10T03:02:09;30.00;99.90
19972;DHT22;10147;16.402;102.848;2023-05-10T03:04:40;29.90;99.90
19972;DHT22;10147;16.402;102.848;2023-05-10T03:07:10;30.00;99.90
19972;DHT22;10147;16.402;102.848;2023-05-10T03:09:40;30.00;99.90
19972;DHT22;10147;16.402;102.848;2023-05-10T03:18:42;30.30;99.90
19972;DHT22;10147;16.402;102.848;2023-05-10T03:21:14;30.40;99.90
19972;DHT22;10147;16.402;102.848;2023-05-10T03:24:04;30.50;99.90
19972;DHT22;10147;16.402;102.848;2023-05-10T03:26:37;30.40;99.90
19972;DHT22;10147;16.402;102.848;2023-05-10T03:29:13;30.60;99.90
19972;DHT22;10147;16.402;102.848;2023-05-10T03:31:44;30.70;99.90
19972;DHT22;10147;16.402;102.848;2023-05-10T03:34:15;30.70;99.90
19972;DHT22;10147;16.402;102.848;2023-05-10T03:36:46;30.90;99.90
19972;DHT22;10147;16.402;102.848;2023-05-10T03:39:16;31.00;99.90
19972;DHT22;10147;16.402;102.848;2023-05-10T03:41:52;30.90;99.90
19972;DHT22;10147;16.402;102.848;2023-05-10T03:44:22;31.00;99.90
19972;DHT22;10147;16.402;102.848;2023-05-10T03:46:52;31.00;99.90
19972;DHT22;10147;16.402;102.848;2023-05-10T03:49:23;31.00;99.90
19972;DHT22;10147;16.402;102.848;2023-05-10T03:51:53;31.30;99.90
19972;DHT22;10147;16.402;102.848;2023-05-10T03:54:24;31.60;99.90
19972;DHT22;10147;16.402;102.848;2023-05-10T03:56:54;31.70;99.90
19972;DHT22;10147;16.402;102.848;2023-05-10T03:59:24;31.50;99.90
19972;DHT22;10147;16.402;102.848;2023-05-10T04:01:54;31.70;99.90
19972;DHT22;10147;16.402;102.848;2023-05-10T04:04:25;31.80;99.90
19972;DHT22;10147;16.402;102.848;2023-05-10T04:06:55;31.90;99.90
19972;DHT22;10147;16.402;102.848;2023-05-10T04:09:25;31.60;99.90
19972;DHT22;10147;16.402;102.848;2023-05-10T04:11:55;31.40;99.90
19972;DHT22;10147;16.402;102.848;2023-05-10T04:14:25;31.00;99.90
19972;DHT22;10147;16.402;102.848;2023-05-10T04:16:55;31.30;99.90
19972;DHT22;10147;16.402;102.848;2023-05-10T04:19:29;31.20;99.90
19972;DHT22;10147;16.402;102.848;2023-05-10T04:22:00;31.60;99.90
19972;DHT22;10147;16.402;102.848;2023-05-10T04:24:31;31.80;99.90
19972;DHT22;10147;16.402;102.848;2023-05-10T04:27:01;32.10;99.90
19972;DHT22;10147;16.402;102.848;2023-05-10T04:29:31;32.20;99.90
19972;DHT22;10147;16.402;102.848;2023-05-10T04:32:01;31.90;99.90
19972;DHT22;10147;16.402;102.848;2023-05-10T04:34:30;31.90;99.90
19972;DHT22;10147;16.402;102.848;2023-05-10T04:37:04;31.80;99.90
19972;DHT22;10147;16.402;102.848;2023-05-10T04:39:33;31.90;99.90
19972;DHT22;10147;16.402;102.848;2023-05-10T04:42:06;32.10;99.90
19972;DHT22;10147;16.402;102.848;2023-05-10T04:44:36;32.60;99.90
19972;DHT22;10147;16.402;102.848;2023-05-10T04:47:07;32.70;99.90
19972;DHT22;10147;16.402;102.848;2023-05-10T04:49:39;32.70;99.90
19972;DHT22;10147;16.402;102.848;2023-05-10T04:52:09;32.80;99.90
19972;DHT22;10147;16.402;102.848;2023-05-10T04:54:39;33.10;99.90
19972;DHT22;10147;16.402;102.848;2023-05-10T04:57:09;33.10;99.90
19972;DHT22;10147;16.402;102.848;2023-05-10T04:59:38;32.80;99.90
19972;DHT22;10147;16.402;102.848;2023-05-10T05:02:08;33.20;99.90
19972;DHT22;10147;16.402;102.848;2023-05-10T05:04:38;33.10;99.90
19972;DHT22;10147;16.402;102.848;2023-05-10T05:07:08;32.70;99.90
19972;DHT22;10147;16.402;102.848;2023-05-10T05:09:38;32.60;99.90
19972;DHT22;10147;16.402;102.848;2023-05-10T05:12:08;32.60;99.90
19972;DHT22;10147;16.402;102.848;2023-05-10T05:14:43;32.60;99.90
19972;DHT22;10147;16.402;102.848;2023-05-10T05:17:13;32.60;99.90
19972;DHT22;10147;16.402;102.848;2023-05-10T05:19:43;32.70;99.90
19972;DHT22;10147;16.402;102.848;2023-05-10T05:22:12;32.80;99.90
19972;DHT22;10147;16.402;102.848;2023-05-10T05:24:43;32.80;99.90
19972;DHT22;10147;16.402;102.848;2023-05-10T05:27:14;32.90;99.90
19972;DHT22;10147;16.402;102.848;2023-05-10T05:29:43;32.80;99.90
19972;DHT22;10147;16.402;102.848;2023-05-10T05:32:13;33.00;99.90
19972;DHT22;10147;16.402;102.848;2023-05-10T05:34:47;33.40;99.90
19972;DHT22;10147;16.402;102.848;2023-05-10T05:37:19;33.30;99.90
19972;DHT22;10147;16.402;102.848;2023-05-10T05:39:49;33.70;99.90
19972;DHT22;10147;16.402;102.848;2023-05-10T05:42:19;33.80;99.90
19972;DHT22;10147;16.402;102.848;2023-05-10T05:44:50;33.50;99.90
19972;DHT22;10147;16.402;102.848;2023-05-10T05:47:20;33.40;99.90
19972;DHT22;10147;16.402;102.848;2023-05-10T05:49:50;33.60;99.90
19972;DHT22;10147;16.402;102.848;2023-05-10T05:52:20;33.60;99.90
19972;DHT22;10147;16.402;102.848;2023-05-10T05:54:50;33.60;99.90
19972;DHT22;10147;16.402;102.848;2023-05-10T05:57:20;33.60;99.90
19972;DHT22;10147;16.402;102.848;2023-05-10T05:59:50;33.80;99.90
19972;DHT22;10147;16.402;102.848;2023-05-10T06:02:20;33.90;99.90
19972;DHT22;10147;16.402;102.848;2023-05-10T06:04:50;34.10;99.90
19972;DHT22;10147;16.402;102.848;2023-05-10T06:07:22;34.10;99.90
19972;DHT22;10147;16.402;102.848;2023-05-10T06:09:52;34.30;99.90
19972;DHT22;10147;16.402;102.848;2023-05-10T06:12:22;34.50;99.90
19972;DHT22;10147;16.402;102.848;2023-05-10T06:14:52;34.50;99.90
19972;DHT22;10147;16.402;102.848;2023-05-10T06:17:22;34.50;99.90
19972;DHT22;10147;16.402;102.848;2023-05-10T06:19:52;34.00;99.90
19972;DHT22;10147;16.402;102.848;2023-05-10T06:22:21;34.40;99.90
19972;DHT22;10147;16.402;102.848;2023-05-10T06:24:51;34.60;99.90
19972;DHT22;10147;16.402;102.848;2023-05-10T06:27:21;34.60;99.90
19972;DHT22;10147;16.402;102.848;2023-05-10T06:29:51;34.70;99.90
19972;DHT22;10147;16.402;102.848;2023-05-10T06:32:36;34.10;99.90
19972;DHT22;10147;16.402;102.848;2023-05-10T06:35:06;34.30;99.90
19972;DHT22;10147;16.402;102.848;2023-05-10T06:37:37;34.20;99.90
19972;DHT22;10147;16.402;102.848;2023-05-10T06:40:07;33.90;99.90
19972;DHT22;10147;16.402;102.848;2023-05-10T06:42:37;33.90;99.90
19972;DHT22;10147;16.402;102.848;2023-05-10T06:45:07;34.30;99.90
19972;DHT22;10147;16.402;102.848;2023-05-10T06:47:38;34.60;99.90
19972;DHT22;10147;16.402;102.848;2023-05-10T06:50:08;34.60;99.90
19972;DHT22;10147;16.402;102.848;2023-05-10T06:52:39;34.50;99.90
19972;DHT22;10147;16.402;102.848;2023-05-10T06:55:10;35.00;99.90
19972;DHT22;10147;16.402;102.848;2023-05-10T06:57:40;35.40;99.90
19972;DHT22;10147;16.402;102.848;2023-05-10T07:00:10;35.50;99.90
19972;DHT22;10147;16.402;102.848;2023-05-10T07:02:40;35.50;99.90
19972;DHT22;10147;16.402;102.848;2023-05-10T07:05:10;35.20;99.90
19972;DHT22;10147;16.402;102.848;2023-05-10T07:07:41;34.80;99.90
19972;DHT22;10147;16.402;102.848;2023-05-10T07:10:11;34.50;99.90
19972;DHT22;10147;16.402;102.848;2023-05-10T07:12:41;34.00;99.90
19972;DHT22;10147;16.402;102.848;2023-05-10T07:15:11;33.90;99.90
19972;DHT22;10147;16.402;102.848;2023-05-10T07:17:42;34.30;99.90
19972;DHT22;10147;16.402;102.848;2023-05-10T07:20:13;34.60;99.90
19972;DHT22;10147;16.402;102.848;2023-05-10T07:22:42;34.60;99.90
19972;DHT22;10147;16.402;102.848;2023-05-10T07:25:12;34.90;99.90
19972;DHT22;10147;16.402;102.848;2023-05-10T07:27:42;34.90;99.90
19972;DHT22;10147;16.402;102.848;2023-05-10T07:30:13;35.00;99.90
19972;DHT22;10147;16.402;102.848;2023-05-10T07:32:43;35.10;99.90
19972;DHT22;10147;16.402;102.848;2023-05-10T07:35:13;35.10;99.90
19972;DHT22;10147;16.402;102.848;2023-05-10T07:37:43;35.10;99.90
19972;DHT22;10147;16.402;102.848;2023-05-10T07:40:13;35.40;99.90
19972;DHT22;10147;16.402;102.848;2023-05-10T07:42:43;35.60;99.90
19972;DHT22;10147;16.402;102.848;2023-05-10T07:45:13;35.30;99.90
19972;DHT22;10147;16.402;102.848;2023-05-10T07:47:44;35.30;99.90
19972;DHT22;10147;16.402;102.848;2023-05-10T07:50:13;35.60;99.90
19972;DHT22;10147;16.402;102.848;2023-05-10T07:52:43;35.30;99.90
19972;DHT22;10147;16.402;102.848;2023-05-10T07:55:13;35.20;99.90
19972;DHT22;10147;16.402;102.848;2023-05-10T07:57:43;35.30;99.90
19972;DHT22;10147;16.402;102.848;2023-05-10T08:00:15;35.50;99.90
19972;DHT22;10147;16.402;102.848;2023-05-10T08:02:46;35.20;99.90
19972;DHT22;10147;16.402;102.848;2023-05-10T08:05:17;35.20;99.90
19972;DHT22;10147;16.402;102.848;2023-05-10T08:07:47;35.30;99.90
19972;DHT22;10147;16.402;102.848;2023-05-10T08:10:17;35.40;99.90
19972;DHT22;10147;16.402;102.848;2023-05-10T08:12:47;35.60;99.90
19972;DHT22;10147;16.402;102.848;2023-05-10T08:15:17;35.70;99.90
19972;DHT22;10147;16.402;102.848;2023-05-10T08:17:46;35.80;99.90
19972;DHT22;10147;16.402;102.848;2023-05-10T08:20:19;35.60;99.90
19972;DHT22;10147;16.402;102.848;2023-05-10T08:22:49;35.50;99.90
19972;DHT22;10147;16.402;102.848;2023-05-10T08:25:19;35.60;99.90
19972;DHT22;10147;16.402;102.848;2023-05-10T08:27:49;35.80;99.90
19972;DHT22;10147;16.402;102.848;2023-05-10T08:30:22;35.60;99.90
19972;DHT22;10147;16.402;102.848;2023-05-10T08:32:52;35.20;99.90
19972;DHT22;10147;16.402;102.848;2023-05-10T08:35:23;34.90;99.90
19972;DHT22;10147;16.402;102.848;2023-05-10T08:37:53;34.80;99.90
19972;DHT22;10147;16.402;102.848;2023-05-10T08:40:24;34.70;99.90
19972;DHT22;10147;16.402;102.848;2023-05-10T08:43:15;34.50;99.90
19972;DHT22;10147;16.402;102.848;2023-05-10T08:45:46;34.20;99.90
19972;DHT22;10147;16.402;102.848;2023-05-10T08:48:16;34.10;99.90
19972;DHT22;10147;16.402;102.848;2023-05-10T08:50:48;34.00;99.90
19972;DHT22;10147;16.402;102.848;2023-05-10T08:53:19;34.10;99.90
19972;DHT22;10147;16.402;102.848;2023-05-10T08:55:50;34.20;99.90
19972;DHT22;10147;16.402;102.848;2023-05-10T08:58:20;34.40;99.90
19972;DHT22;10147;16.402;102.848;2023-05-10T09:00:50;34.40;99.90
19972;DHT22;10147;16.402;102.848;2023-05-10T09:03:21;34.50;99.90
19972;DHT22;10147;16.402;102.848;2023-05-10T09:05:51;34.50;99.90
19972;DHT22;10147;16.402;102.848;2023-05-10T09:08:23;34.50;99.90
19972;DHT22;10147;16.402;102.848;2023-05-10T09:10:57;34.40;99.90
19972;DHT22;10147;16.402;102.848;2023-05-10T09:13:28;34.10;99.90
19972;DHT22;10147;16.402;102.848;2023-05-10T09:15:58;33.90;99.90
19972;DHT22;10147;16.402;102.848;2023-05-10T09:18:47;33.90;99.90
19972;DHT22;10147;16.402;102.848;2023-05-10T09:21:16;33.90;99.90
19972;DHT22;10147;16.402;102.848;2023-05-10T09:23:47;33.80;99.90
19972;DHT22;10147;16.402;102.848;2023-05-10T09:26:22;33.80;99.90
19972;DHT22;10147;16.402;102.848;2023-05-10T09:28:57;34.00;99.90
19972;DHT22;10147;16.402;102.848;2023-05-10T09:31:48;34.20;99.90
19972;DHT22;10147;16.402;102.848;2023-05-10T09:34:31;34.00;99.90
19972;DHT22;10147;16.402;102.848;2023-05-10T09:37:03;33.90;99.90
19972;DHT22;10147;16.402;102.848;2023-05-10T09:39:38;33.80;99.90
19972;DHT22;10147;16.402;102.848;2023-05-10T09:42:09;33.60;99.90
19972;DHT22;10147;16.402;102.848;2023-05-10T09:44:40;33.60;99.90
19972;DHT22;10147;16.402;102.848;2023-05-10T09:47:17;33.50;99.90
19972;DHT22;10147;16.402;102.848;2023-05-10T09:49:52;33.50;99.90
19972;DHT22;10147;16.402;102.848;2023-05-10T09:52:22;33.50;99.90
19972;DHT22;10147;16.402;102.848;2023-05-10T09:54:55;33.50;99.90
19972;DHT22;10147;16.402;102.848;2023-05-10T09:57:25;33.40;99.90
19972;DHT22;10147;16.402;102.848;2023-05-10T09:59:55;33.30;99.90
19972;DHT22;10147;16.402;102.848;2023-05-10T10:02:29;33.20;99.90
19972;DHT22;10147;16.402;102.848;2023-05-10T10:05:01;33.20;99.90
19972;DHT22;10147;16.402;102.848;2023-05-10T10:07:33;33.20;99.90
19972;DHT22;10147;16.402;102.848;2023-05-10T10:10:04;33.10;99.90
19972;DHT22;10147;16.402;102.848;2023-05-10T10:12:34;33.10;99.90
19972;DHT22;10147;16.402;102.848;2023-05-10T10:15:06;33.10;99.90
19972;DHT22;10147;16.402;102.848;2023-05-10T10:17:41;33.10;99.90
19972;DHT22;10147;16.402;102.848;2023-05-10T10:20:13;33.00;99.90
19972;DHT22;10147;16.402;102.848;2023-05-10T10:22:43;33.00;99.90
19972;DHT22;10147;16.402;102.848;2023-05-10T10:25:15;32.90;99.90
19972;DHT22;10147;16.402;102.848;2023-05-10T10:30:53;32.50;99.90
19972;DHT22;10147;16.402;102.848;2023-05-10T10:36:43;31.50;99.90
19972;DHT22;10147;16.402;102.848;2023-05-10T10:39:15;31.00;99.90
19972;DHT22;10147;16.402;102.848;2023-05-10T10:41:55;30.80;99.90
19972;DHT22;10147;16.402;102.848;2023-05-10T10:44:35;30.40;99.90
19972;DHT22;10147;16.402;102.848;2023-05-10T10:47:27;30.20;99.90
19972;DHT22;10147;16.402;102.848;2023-05-10T10:50:06;30.20;99.90
19972;DHT22;10147;16.402;102.848;2023-05-10T10:52:41;30.10;99.90
19972;DHT22;10147;16.402;102.848;2023-05-10T10:55:18;29.90;99.90
19972;DHT22;10147;16.402;102.848;2023-05-10T10:57:56;29.80;99.90
19972;DHT22;10147;16.402;102.848;2023-05-10T11:00:36;30.00;99.90
19972;DHT22;10147;16.402;102.848;2023-05-10T11:03:11;30.20;99.90
19972;DHT22;10147;16.402;102.848;2023-05-10T11:05:58;30.40;99.90
19972;DHT22;10147;16.402;102.848;2023-05-10T11:08:41;30.20;99.90
19972;DHT22;10147;16.402;102.848;2023-05-10T11:11:15;30.10;99.90
19972;DHT22;10147;16.402;102.848;2023-05-10T11:13:46;30.00;99.90
19972;DHT22;10147;16.402;102.848;2023-05-10T11:16:24;30.10;99.90
19972;DHT22;10147;16.402;102.848;2023-05-10T11:18:58;29.90;99.90
19972;DHT22;10147;16.402;102.848;2023-05-10T11:21:31;30.00;99.90
19972;DHT22;10147;16.402;102.848;2023-05-10T11:24:02;29.80;99.90
19972;DHT22;10147;16.402;102.848;2023-05-10T11:26:45;29.70;99.90
19972;DHT22;10147;16.402;102.848;2023-05-10T11:29:16;29.80;99.90
19972;DHT22;10147;16.402;102.848;2023-05-10T11:31:47;29.80;99.90
19972;DHT22;10147;16.402;102.848;2023-05-10T11:34:28;29.60;99.90
19972;DHT22;10147;16.402;102.848;2023-05-10T11:37:05;29.40;99.90
19972;DHT22;10147;16.402;102.848;2023-05-10T11:39:35;29.40;99.90
19972;DHT22;10147;16.402;102.848;2023-05-10T11:42:08;29.50;99.90
19972;DHT22;10147;16.402;102.848;2023-05-10T11:44:39;29.50;99.90
19972;DHT22;10147;16.402;102.848;2023-05-10T11:47:10;29.80;99.90
19972;DHT22;10147;16.402;102.848;2023-05-10T11:49:44;30.10;99.90
19972;DHT22;10147;16.402;102.848;2023-05-10T11:52:14;30.00;99.90
19972;DHT22;10147;16.402;102.848;2023-05-10T11:54:54;29.90;99.90
19972;DHT22;10147;16.402;102.848;2023-05-10T11:57:27;29.70;99.90
19972;DHT22;10147;16.402;102.848;2023-05-10T11:59:58;29.70;99.90
19972;DHT22;10147;16.402;102.848;2023-05-10T12:02:29;29.70;99.90
19972;DHT22;10147;16.402;102.848;2023-05-10T12:05:00;29.60;99.90
19972;DHT22;10147;16.402;102.848;2023-05-10T12:07:31;29.20;99.90
19972;DHT22;10147;16.402;102.848;2023-05-10T12:10:06;29.10;99.90
19972;DHT22;10147;16.402;102.848;2023-05-10T12:12:42;29.30;99.90
19972;DHT22;10147;16.402;102.848;2023-05-10T12:15:23;29.40;99.90
19972;DHT22;10147;16.402;102.848;2023-05-10T12:17:53;29.40;99.90
19972;DHT22;10147;16.402;102.848;2023-05-10T12:20:26;29.50;99.90
19972;DHT22;10147;16.402;102.848;2023-05-10T12:22:58;29.50;99.90
19972;DHT22;10147;16.402;102.848;2023-05-10T12:25:32;29.50;99.90
19972;DHT22;10147;16.402;102.848;2023-05-10T12:28:05;29.40;99.90
19972;DHT22;10147;16.402;102.848;2023-05-10T12:30:36;29.50;99.90
19972;DHT22;10147;16.402;102.848;2023-05-10T12:33:12;29.50;99.90
19972;DHT22;10147;16.402;102.848;2023-05-10T12:35:49;29.50;99.90
19972;DHT22;10147;16.402;102.848;2023-05-10T12:38:39;29.30;99.90
19972;DHT22;10147;16.402;102.848;2023-05-10T12:41:15;29.30;99.90
19972;DHT22;10147;16.402;102.848;2023-05-10T12:43:45;29.50;99.90
19972;DHT22;10147;16.402;102.848;2023-05-10T12:46:17;29.10;99.90
19972;DHT22;10147;16.402;102.848;2023-05-10T12:48:48;29.10;99.90
19972;DHT22;10147;16.402;102.848;2023-05-10T12:51:36;29.30;99.90
19972;DHT22;10147;16.402;102.848;2023-05-10T12:54:05;29.20;99.90
19972;DHT22;10147;16.402;102.848;2023-05-10T12:56:35;29.20;99.90
19972;DHT22;10147;16.402;102.848;2023-05-10T12:59:06;29.10;99.90
19972;DHT22;10147;16.402;102.848;2023-05-10T13:01:36;29.10;99.90
19972;DHT22;10147;16.402;102.848;2023-05-10T13:04:05;29.10;99.90
19972;DHT22;10147;16.402;102.848;2023-05-10T13:06:36;29.10;99.90
19972;DHT22;10147;16.402;102.848;2023-05-10T13:09:08;29.00;99.90
19972;DHT22;10147;16.402;102.848;2023-05-10T13:11:38;29.00;99.90
19972;DHT22;10147;16.402;102.848;2023-05-10T13:14:08;29.00;99.90
19972;DHT22;10147;16.402;102.848;2023-05-10T13:16:37;29.00;99.90
19972;DHT22;10147;16.402;102.848;2023-05-10T13:19:11;28.80;99.90
19972;DHT22;10147;16.402;102.848;2023-05-10T13:21:44;29.00;99.90
19972;DHT22;10147;16.402;102.848;2023-05-10T13:24:14;28.90;99.90
19972;DHT22;10147;16.402;102.848;2023-05-10T13:26:44;29.10;99.90
19972;DHT22;10147;16.402;102.848;2023-05-10T13:29:15;29.10;99.90
19972;DHT22;10147;16.402;102.848;2023-05-10T13:31:47;29.10;99.90
19972;DHT22;10147;16.402;102.848;2023-05-10T13:34:17;29.30;99.90
19972;DHT22;10147;16.402;102.848;2023-05-10T13:36:49;29.40;99.90
19972;DHT22;10147;16.402;102.848;2023-05-10T13:39:20;29.40;99.90
19972;DHT22;10147;16.402;102.848;2023-05-10T13:41:50;29.30;99.90
19972;DHT22;10147;16.402;102.848;2023-05-10T13:44:22;29.30;99.90
19972;DHT22;10147;16.402;102.848;2023-05-10T13:46:52;29.40;99.90
19972;DHT22;10147;16.402;102.848;2023-05-10T13:49:22;29.30;99.90
19972;DHT22;10147;16.402;102.848;2023-05-10T13:51:52;29.10;99.90
19972;DHT22;10147;16.402;102.848;2023-05-10T13:54:23;29.00;99.90
19972;DHT22;10147;16.402;102.848;2023-05-10T13:56:54;28.90;99.90
19972;DHT22;10147;16.402;102.848;2023-05-10T13:59:24;28.90;99.90
19972;DHT22;10147;16.402;102.848;2023-05-10T14:01:54;29.10;99.90
19972;DHT22;10147;16.402;102.848;2023-05-10T14:04:24;28.90;99.90
19972;DHT22;10147;16.402;102.848;2023-05-10T14:06:54;28.90;99.90
19972;DHT22;10147;16.402;102.848;2023-05-10T14:09:24;29.00;99.90
19972;DHT22;10147;16.402;102.848;2023-05-10T14:11:54;29.00;99.90
19972;DHT22;10147;16.402;102.848;2023-05-10T14:14:25;29.00;99.90
19972;DHT22;10147;16.402;102.848;2023-05-10T14:16:55;29.10;99.90
19972;DHT22;10147;16.402;102.848;2023-05-10T14:19:25;29.10;99.90
19972;DHT22;10147;16.402;102.848;2023-05-10T14:21:56;29.10;99.90
19972;DHT22;10147;16.402;102.848;2023-05-10T14:24:26;29.00;99.90
19972;DHT22;10147;16.402;102.848;2023-05-10T14:26:56;28.90;99.90
19972;DHT22;10147;16.402;102.848;2023-05-10T14:29:26;28.90;99.90
19972;DHT22;10147;16.402;102.848;2023-05-10T14:31:56;29.10;99.90
19972;DHT22;10147;16.402;102.848;2023-05-10T14:34:26;29.20;99.90
19972;DHT22;10147;16.402;102.848;2023-05-10T14:36:56;29.10;99.90
19972;DHT22;10147;16.402;102.848;2023-05-10T14:39:26;29.10;99.90
19972;DHT22;10147;16.402;102.848;2023-05-10T14:41:58;29.20;99.90
19972;DHT22;10147;16.402;102.848;2023-05-10T14:44:31;29.20;99.90
19972;DHT22;10147;16.402;102.848;2023-05-10T14:47:01;29.30;99.90
19972;DHT22;10147;16.402;102.848;2023-05-10T14:49:31;29.40;99.90
19972;DHT22;10147;16.402;102.848;2023-05-10T14:52:02;29.50;99.90
19972;DHT22;10147;16.402;102.848;2023-05-10T14:54:32;29.40;99.90
19972;DHT22;10147;16.402;102.848;2023-05-10T14:57:03;29.40;99.90
19972;DHT22;10147;16.402;102.848;2023-05-10T14:59:32;29.40;99.90
19972;DHT22;10147;16.402;102.848;2023-05-10T15:02:03;29.50;99.90
19972;DHT22;10147;16.402;102.848;2023-05-10T15:04:34;29.40;99.90
19972;DHT22;10147;16.402;102.848;2023-05-10T15:07:05;29.30;99.90
19972;DHT22;10147;16.402;102.848;2023-05-10T15:09:34;29.10;99.90
19972;DHT22;10147;16.402;102.848;2023-05-10T15:12:05;29.10;99.90
19972;DHT22;10147;16.402;102.848;2023-05-10T15:14:34;29.20;99.90
19972;DHT22;10147;16.402;102.848;2023-05-10T15:17:06;29.20;99.90
19972;DHT22;10147;16.402;102.848;2023-05-10T15:19:37;29.10;99.90
19972;DHT22;10147;16.402;102.848;2023-05-10T15:22:06;29.10;99.90
19972;DHT22;10147;16.402;102.848;2023-05-10T15:24:36;29.00;99.90
19972;DHT22;10147;16.402;102.848;2023-05-10T15:27:06;29.20;99.90
19972;DHT22;10147;16.402;102.848;2023-05-10T15:29:36;29.20;99.90
19972;DHT22;10147;16.402;102.848;2023-05-10T15:32:06;29.40;99.90
19972;DHT22;10147;16.402;102.848;2023-05-10T15:34:36;29.50;99.90
19972;DHT22;10147;16.402;102.848;2023-05-10T15:37:06;29.30;99.90
19972;DHT22;10147;16.402;102.848;2023-05-10T15:39:36;29.20;99.90
19972;DHT22;10147;16.402;102.848;2023-05-10T15:42:06;29.20;99.90
19972;DHT22;10147;16.402;102.848;2023-05-10T15:44:36;29.20;99.90
19972;DHT22;10147;16.402;102.848;2023-05-10T15:47:07;29.30;99.90
19972;DHT22;10147;16.402;102.848;2023-05-10T15:49:38;29.40;99.90
19972;DHT22;10147;16.402;102.848;2023-05-10T15:52:08;29.30;99.90
19972;DHT22;10147;16.402;102.848;2023-05-10T15:54:38;29.10;99.90
19972;DHT22;10147;16.402;102.848;2023-05-10T15:57:08;29.00;99.90